Clarksville, Tennessee
Current Conditions -  °F | °C
As of 5:52 AM on Sunday 23 Nov 2014 (Local Time) from KCKV Reporting Station
Light Rain Light Rain  
Wind Chill: 53°   Ceiling: 3600
Heat Index: 53°   Visibility: 10mi
Dew Point: 43°   Wind: 8mph
Humidity: 69%   Direction: 120°ESE
Pressure: 29.89"   Gusts: NA
Location:  36.53°N, 87.36°W
Report Text: KCKV 231152Z AUTO 12007KT 10SM -RA SCT027 OVC036 12/06 A2989 RMK AO2 RAB15 SLP121 P0000 60000 T01170061 10128 20100 56019 $
Loading
Personal Weather Stations






























Interactive Weather Map New forecast layout! Learn more

10-Day Weather Forecast

Advertisements
Track Severe Weather on mobile